sensor_id;sensor_type;location;lat;lon;timestamp;P1;durP1;ratioP1;P2;durP2;ratioP2
19260;SDS011;9764;48.114;11.670;2022-10-22T00:01:15;1.15;;;0.90;;
19260;SDS011;9764;48.114;11.670;2022-10-22T00:03:43;1.00;;;1.00;;
19260;SDS011;9764;48.114;11.670;2022-10-22T00:06:12;1.20;;;1.10;;
19260;SDS011;9764;48.114;11.670;2022-10-22T00:08:40;1.10;;;1.00;;
19260;SDS011;9764;48.114;11.670;2022-10-22T00:11:09;0.90;;;0.90;;
19260;SDS011;9764;48.114;11.670;2022-10-22T00:13:40;1.30;;;1.13;;
19260;SDS011;9764;48.114;11.670;2022-10-22T00:16:08;1.13;;;1.00;;
19260;SDS011;9764;48.114;11.670;2022-10-22T00:18:37;1.30;;;1.20;;
19260;SDS011;9764;48.114;11.670;2022-10-22T00:21:05;1.00;;;0.90;;
19260;SDS011;9764;48.114;11.670;2022-10-22T00:23:34;1.00;;;0.90;;
19260;SDS011;9764;48.114;11.670;2022-10-22T00:26:03;1.63;;;1.00;;
19260;SDS011;9764;48.114;11.670;2022-10-22T00:28:31;1.10;;;1.00;;
19260;SDS011;9764;48.114;11.670;2022-10-22T00:31:00;1.45;;;1.25;;
19260;SDS011;9764;48.114;11.670;2022-10-22T00:33:29;1.10;;;1.00;;
19260;SDS011;9764;48.114;11.670;2022-10-22T00:35:57;1.10;;;1.00;;
19260;SDS011;9764;48.114;11.670;2022-10-22T00:38:26;0.85;;;0.85;;
19260;SDS011;9764;48.114;11.670;2022-10-22T00:40:54;1.17;;;1.00;;
19260;SDS011;9764;48.114;11.670;2022-10-22T00:43:23;1.23;;;1.10;;
19260;SDS011;9764;48.114;11.670;2022-10-22T00:45:51;1.02;;;0.90;;
19260;SDS011;9764;48.114;11.670;2022-10-22T00:48:22;0.85;;;0.85;;
19260;SDS011;9764;48.114;11.670;2022-10-22T00:50:53;1.00;;;0.90;;
19260;SDS011;9764;48.114;11.670;2022-10-22T00:53:26;1.20;;;1.10;;
19260;SDS011;9764;48.114;11.670;2022-10-22T00:55:58;1.10;;;1.10;;
19260;SDS011;9764;48.114;11.670;2022-10-22T00:58:28;1.10;;;1.00;;
19260;SDS011;9764;48.114;11.670;2022-10-22T01:01:00;1.13;;;1.02;;
19260;SDS011;9764;48.114;11.670;2022-10-22T01:03:30;1.08;;;0.98;;
19260;SDS011;9764;48.114;11.670;2022-10-22T01:05:59;1.15;;;1.05;;
19260;SDS011;9764;48.114;11.670;2022-10-22T01:08:31;1.00;;;1.00;;
19260;SDS011;9764;48.114;11.670;2022-10-22T01:11:07;1.15;;;0.98;;
19260;SDS011;9764;48.114;11.670;2022-10-22T01:13:45;2.17;;;1.10;;
19260;SDS011;9764;48.114;11.670;2022-10-22T01:16:21;0.73;;;0.73;;
19260;SDS011;9764;48.114;11.670;2022-10-22T01:19:03;0.88;;;0.88;;
19260;SDS011;9764;48.114;11.670;2022-10-22T01:21:47;1.15;;;1.05;;
19260;SDS011;9764;48.114;11.670;2022-10-22T01:24:25;1.20;;;1.10;;
19260;SDS011;9764;48.114;11.670;2022-10-22T01:27:06;0.98;;;0.98;;
19260;SDS011;9764;48.114;11.670;2022-10-22T01:29:44;1.08;;;0.98;;
19260;SDS011;9764;48.114;11.670;2022-10-22T01:32:15;0.90;;;0.90;;
19260;SDS011;9764;48.114;11.670;2022-10-22T01:34:45;0.80;;;0.80;;
19260;SDS011;9764;48.114;11.670;2022-10-22T01:37:18;1.00;;;0.98;;
19260;SDS011;9764;48.114;11.670;2022-10-22T01:39:50;1.10;;;1.00;;
19260;SDS011;9764;48.114;11.670;2022-10-22T01:42:20;1.30;;;0.95;;
19260;SDS011;9764;48.114;11.670;2022-10-22T01:44:49;1.10;;;1.00;;
19260;SDS011;9764;48.114;11.670;2022-10-22T01:47:20;1.75;;;1.00;;
19260;SDS011;9764;48.114;11.670;2022-10-22T01:50:03;1.15;;;0.90;;
19260;SDS011;9764;48.114;11.670;2022-10-22T01:53:00;0.90;;;0.90;;
19260;SDS011;9764;48.114;11.670;2022-10-22T01:55:55;1.15;;;1.00;;
19260;SDS011;9764;48.114;11.670;2022-10-22T01:58:35;1.05;;;0.90;;
19260;SDS011;9764;48.114;11.670;2022-10-22T02:01:14;0.80;;;0.80;;
19260;SDS011;9764;48.114;11.670;2022-10-22T02:03:47;1.20;;;1.10;;
19260;SDS011;9764;48.114;11.670;2022-10-22T02:06:25;0.77;;;0.77;;
19260;SDS011;9764;48.114;11.670;2022-10-22T02:08:55;0.90;;;0.90;;
19260;SDS011;9764;48.114;11.670;2022-10-22T02:11:25;0.85;;;0.85;;
19260;SDS011;9764;48.114;11.670;2022-10-22T02:13:54;1.08;;;1.00;;
19260;SDS011;9764;48.114;11.670;2022-10-22T02:16:27;1.10;;;1.10;;
19260;SDS011;9764;48.114;11.670;2022-10-22T02:18:59;0.80;;;0.80;;
19260;SDS011;9764;48.114;11.670;2022-10-22T02:21:41;1.02;;;0.82;;
19260;SDS011;9764;48.114;11.670;2022-10-22T02:24:09;1.65;;;1.00;;
19260;SDS011;9764;48.114;11.670;2022-10-22T02:26:39;1.15;;;1.05;;
19260;SDS011;9764;48.114;11.670;2022-10-22T02:29:11;0.80;;;0.80;;
19260;SDS011;9764;48.114;11.670;2022-10-22T02:31:46;1.30;;;0.98;;
19260;SDS011;9764;48.114;11.670;2022-10-22T02:34:17;0.80;;;0.80;;
19260;SDS011;9764;48.114;11.670;2022-10-22T02:36:49;0.93;;;0.90;;
19260;SDS011;9764;48.114;11.670;2022-10-22T02:39:18;0.80;;;0.80;;
19260;SDS011;9764;48.114;11.670;2022-10-22T02:41:48;1.35;;;0.70;;
19260;SDS011;9764;48.114;11.670;2022-10-22T02:44:19;1.45;;;0.98;;
19260;SDS011;9764;48.114;11.670;2022-10-22T02:46:49;0.90;;;0.90;;
19260;SDS011;9764;48.114;11.670;2022-10-22T02:49:17;1.08;;;0.98;;
19260;SDS011;9764;48.114;11.670;2022-10-22T02:51:46;1.75;;;0.82;;
19260;SDS011;9764;48.114;11.670;2022-10-22T02:54:14;1.05;;;0.90;;
19260;SDS011;9764;48.114;11.670;2022-10-22T02:56:42;0.85;;;0.85;;
19260;SDS011;9764;48.114;11.670;2022-10-22T02:59:10;2.25;;;0.90;;
19260;SDS011;9764;48.114;11.670;2022-10-22T03:01:38;0.82;;;0.82;;
19260;SDS011;9764;48.114;11.670;2022-10-22T03:04:08;0.80;;;0.80;;
19260;SDS011;9764;48.114;11.670;2022-10-22T03:06:36;0.80;;;0.80;;
19260;SDS011;9764;48.114;11.670;2022-10-22T03:09:04;1.00;;;1.00;;
19260;SDS011;9764;48.114;11.670;2022-10-22T03:11:33;1.00;;;1.00;;
19260;SDS011;9764;48.114;11.670;2022-10-22T03:14:01;0.77;;;0.77;;
19260;SDS011;9764;48.114;11.670;2022-10-22T03:16:29;1.13;;;0.90;;
19260;SDS011;9764;48.114;11.670;2022-10-22T03:18:57;0.80;;;0.80;;
19260;SDS011;9764;48.114;11.670;2022-10-22T03:21:29;1.35;;;0.95;;
19260;SDS011;9764;48.114;11.670;2022-10-22T03:24:01;0.77;;;0.77;;
19260;SDS011;9764;48.114;11.670;2022-10-22T03:26:34;0.73;;;0.73;;
19260;SDS011;9764;48.114;11.670;2022-10-22T03:29:03;0.93;;;0.90;;
19260;SDS011;9764;48.114;11.670;2022-10-22T03:31:31;0.80;;;0.80;;
19260;SDS011;9764;48.114;11.670;2022-10-22T03:33:59;0.75;;;0.75;;
19260;SDS011;9764;48.114;11.670;2022-10-22T03:36:29;0.80;;;0.80;;
19260;SDS011;9764;48.114;11.670;2022-10-22T03:38:58;1.08;;;0.98;;
19260;SDS011;9764;48.114;11.670;2022-10-22T03:41:26;1.20;;;0.90;;
19260;SDS011;9764;48.114;11.670;2022-10-22T03:43:55;0.73;;;0.73;;
19260;SDS011;9764;48.114;11.670;2022-10-22T03:46:24;1.10;;;0.90;;
19260;SDS011;9764;48.114;11.670;2022-10-22T03:48:52;0.98;;;0.88;;
19260;SDS011;9764;48.114;11.670;2022-10-22T03:51:20;0.70;;;0.70;;
19260;SDS011;9764;48.114;11.670;2022-10-22T03:53:50;0.75;;;0.75;;
19260;SDS011;9764;48.114;11.670;2022-10-22T03:56:18;1.00;;;0.82;;
19260;SDS011;9764;48.114;11.670;2022-10-22T03:58:46;1.02;;;0.93;;
19260;SDS011;9764;48.114;11.670;2022-10-22T04:01:15;1.45;;;1.02;;
19260;SDS011;9764;48.114;11.670;2022-10-22T04:03:43;0.80;;;0.80;;
19260;SDS011;9764;48.114;11.670;2022-10-22T04:06:11;0.77;;;0.77;;
19260;SDS011;9764;48.114;11.670;2022-10-22T04:08:40;1.30;;;0.60;;
19260;SDS011;9764;48.114;11.670;2022-10-22T04:11:12;1.33;;;0.82;;
19260;SDS011;9764;48.114;11.670;2022-10-22T04:13:41;0.98;;;0.80;;
19260;SDS011;9764;48.114;11.670;2022-10-22T04:16:10;0.80;;;0.65;;
19260;SDS011;9764;48.114;11.670;2022-10-22T04:18:40;0.70;;;0.70;;
19260;SDS011;9764;48.114;11.670;2022-10-22T04:21:10;0.70;;;0.70;;
19260;SDS011;9764;48.114;11.670;2022-10-22T04:23:43;0.90;;;0.80;;
19260;SDS011;9764;48.114;11.670;2022-10-22T04:26:13;0.88;;;0.88;;
19260;SDS011;9764;48.114;11.670;2022-10-22T04:28:42;0.95;;;0.77;;
19260;SDS011;9764;48.114;11.670;2022-10-22T04:31:12;0.75;;;0.75;;
19260;SDS011;9764;48.114;11.670;2022-10-22T04:33:41;0.70;;;0.70;;
19260;SDS011;9764;48.114;11.670;2022-10-22T04:36:11;0.70;;;0.70;;
19260;SDS011;9764;48.114;11.670;2022-10-22T04:38:42;0.70;;;0.70;;
19260;SDS011;9764;48.114;11.670;2022-10-22T04:41:12;0.90;;;0.90;;
19260;SDS011;9764;48.114;11.670;2022-10-22T04:43:43;0.70;;;0.70;;
19260;SDS011;9764;48.114;11.670;2022-10-22T04:46:12;0.65;;;0.65;;
19260;SDS011;9764;48.114;11.670;2022-10-22T04:48:41;0.80;;;0.80;;
19260;SDS011;9764;48.114;11.670;2022-10-22T04:51:13;0.50;;;0.50;;
19260;SDS011;9764;48.114;11.670;2022-10-22T04:53:42;0.60;;;0.60;;
19260;SDS011;9764;48.114;11.670;2022-10-22T04:56:12;0.77;;;0.70;;
19260;SDS011;9764;48.114;11.670;2022-10-22T04:58:46;0.80;;;0.80;;
19260;SDS011;9764;48.114;11.670;2022-10-22T05:01:15;0.60;;;0.60;;
19260;SDS011;9764;48.114;11.670;2022-10-22T05:03:45;0.80;;;0.80;;
19260;SDS011;9764;48.114;11.670;2022-10-22T05:06:15;0.95;;;0.60;;
19260;SDS011;9764;48.114;11.670;2022-10-22T05:08:45;0.60;;;0.60;;
19260;SDS011;9764;48.114;11.670;2022-10-22T05:11:16;0.70;;;0.70;;
19260;SDS011;9764;48.114;11.670;2022-10-22T05:13:46;0.70;;;0.70;;
19260;SDS011;9764;48.114;11.670;2022-10-22T05:16:14;0.60;;;0.60;;
19260;SDS011;9764;48.114;11.670;2022-10-22T05:18:43;0.70;;;0.60;;
19260;SDS011;9764;48.114;11.670;2022-10-22T05:21:13;0.70;;;0.70;;
19260;SDS011;9764;48.114;11.670;2022-10-22T05:23:43;0.90;;;0.70;;
19260;SDS011;9764;48.114;11.670;2022-10-22T05:26:12;0.80;;;0.80;;
19260;SDS011;9764;48.114;11.670;2022-10-22T05:28:45;0.70;;;0.68;;
19260;SDS011;9764;48.114;11.670;2022-10-22T05:31:15;0.63;;;0.60;;
19260;SDS011;9764;48.114;11.670;2022-10-22T05:33:44;0.60;;;0.60;;
19260;SDS011;9764;48.114;11.670;2022-10-22T05:36:15;0.75;;;0.75;;
19260;SDS011;9764;48.114;11.670;2022-10-22T05:38:45;0.70;;;0.70;;
19260;SDS011;9764;48.114;11.670;2022-10-22T05:41:14;0.60;;;0.60;;
19260;SDS011;9764;48.114;11.670;2022-10-22T05:43:45;0.70;;;0.70;;
19260;SDS011;9764;48.114;11.670;2022-10-22T05:46:14;0.68;;;0.68;;
19260;SDS011;9764;48.114;11.670;2022-10-22T05:48:48;0.60;;;0.60;;
19260;SDS011;9764;48.114;11.670;2022-10-22T05:51:17;0.70;;;0.70;;
19260;SDS011;9764;48.114;11.670;2022-10-22T05:53:49;0.68;;;0.68;;
19260;SDS011;9764;48.114;11.670;2022-10-22T05:56:20;0.88;;;0.88;;
19260;SDS011;9764;48.114;11.670;2022-10-22T05:58:48;0.93;;;0.63;;
19260;SDS011;9764;48.114;11.670;2022-10-22T06:01:17;0.60;;;0.60;;
19260;SDS011;9764;48.114;11.670;2022-10-22T06:03:47;0.60;;;0.60;;
19260;SDS011;9764;48.114;11.670;2022-10-22T06:06:17;0.50;;;0.50;;
19260;SDS011;9764;48.114;11.670;2022-10-22T06:08:48;0.60;;;0.60;;
19260;SDS011;9764;48.114;11.670;2022-10-22T06:11:18;0.80;;;0.52;;
19260;SDS011;9764;48.114;11.670;2022-10-22T06:13:49;0.50;;;0.50;;
19260;SDS011;9764;48.114;11.670;2022-10-22T06:16:17;0.73;;;0.73;;
19260;SDS011;9764;48.114;11.670;2022-10-22T06:18:46;0.50;;;0.50;;
19260;SDS011;9764;48.114;11.670;2022-10-22T06:21:14;0.70;;;0.50;;
19260;SDS011;9764;48.114;11.670;2022-10-22T06:23:43;0.60;;;0.60;;
19260;SDS011;9764;48.114;11.670;2022-10-22T06:26:11;0.60;;;0.60;;
19260;SDS011;9764;48.114;11.670;2022-10-22T06:28:40;0.50;;;0.50;;
19260;SDS011;9764;48.114;11.670;2022-10-22T06:31:09;0.50;;;0.50;;
19260;SDS011;9764;48.114;11.670;2022-10-22T06:33:37;0.52;;;0.52;;
19260;SDS011;9764;48.114;11.670;2022-10-22T06:36:08;0.60;;;0.60;;
19260;SDS011;9764;48.114;11.670;2022-10-22T06:38:39;0.60;;;0.60;;
19260;SDS011;9764;48.114;11.670;2022-10-22T06:41:08;0.55;;;0.55;;
19260;SDS011;9764;48.114;11.670;2022-10-22T06:43:38;0.55;;;0.55;;
19260;SDS011;9764;48.114;11.670;2022-10-22T06:46:08;0.45;;;0.45;;
19260;SDS011;9764;48.114;11.670;2022-10-22T06:48:46;0.60;;;0.50;;
19260;SDS011;9764;48.114;11.670;2022-10-22T06:51:15;0.60;;;0.60;;
19260;SDS011;9764;48.114;11.670;2022-10-22T06:53:44;0.55;;;0.55;;
19260;SDS011;9764;48.114;11.670;2022-10-22T06:56:14;0.60;;;0.60;;
19260;SDS011;9764;48.114;11.670;2022-10-22T06:58:45;0.50;;;0.50;;
19260;SDS011;9764;48.114;11.670;2022-10-22T07:01:16;0.75;;;0.52;;
19260;SDS011;9764;48.114;11.670;2022-10-22T07:03:46;0.60;;;0.60;;
19260;SDS011;9764;48.114;11.670;2022-10-22T07:06:17;0.50;;;0.50;;
19260;SDS011;9764;48.114;11.670;2022-10-22T07:08:46;0.50;;;0.50;;
19260;SDS011;9764;48.114;11.670;2022-10-22T07:11:15;0.50;;;0.50;;
19260;SDS011;9764;48.114;11.670;2022-10-22T07:13:44;0.55;;;0.55;;
19260;SDS011;9764;48.114;11.670;2022-10-22T07:16:13;0.60;;;0.60;;
19260;SDS011;9764;48.114;11.670;2022-10-22T07:18:43;0.60;;;0.50;;
19260;SDS011;9764;48.114;11.670;2022-10-22T07:21:13;0.63;;;0.63;;
19260;SDS011;9764;48.114;11.670;2022-10-22T07:23:43;0.55;;;0.55;;
19260;SDS011;9764;48.114;11.670;2022-10-22T07:26:13;0.52;;;0.52;;
19260;SDS011;9764;48.114;11.670;2022-10-22T07:28:42;0.50;;;0.50;;
19260;SDS011;9764;48.114;11.670;2022-10-22T07:31:11;0.60;;;0.60;;
19260;SDS011;9764;48.114;11.670;2022-10-22T07:33:40;0.50;;;0.50;;
19260;SDS011;9764;48.114;11.670;2022-10-22T07:36:10;0.43;;;0.43;;
19260;SDS011;9764;48.114;11.670;2022-10-22T07:38:43;0.57;;;0.57;;
19260;SDS011;9764;48.114;11.670;2022-10-22T07:41:11;0.50;;;0.50;;
19260;SDS011;9764;48.114;11.670;2022-10-22T07:43:40;0.40;;;0.40;;
19260;SDS011;9764;48.114;11.670;2022-10-22T07:46:08;0.50;;;0.50;;
19260;SDS011;9764;48.114;11.670;2022-10-22T07:48:37;0.60;;;0.60;;
19260;SDS011;9764;48.114;11.670;2022-10-22T07:51:05;0.52;;;0.50;;
19260;SDS011;9764;48.114;11.670;2022-10-22T07:53:35;1.02;;;0.60;;
19260;SDS011;9764;48.114;11.670;2022-10-22T07:56:03;0.60;;;0.60;;
19260;SDS011;9764;48.114;11.670;2022-10-22T07:58:32;0.50;;;0.50;;
19260;SDS011;9764;48.114;11.670;2022-10-22T08:01:01;0.50;;;0.50;;
19260;SDS011;9764;48.114;11.670;2022-10-22T08:03:32;0.60;;;0.60;;
19260;SDS011;9764;48.114;11.670;2022-10-22T08:06:01;0.50;;;0.50;;
19260;SDS011;9764;48.114;11.670;2022-10-22T08:08:29;0.40;;;0.40;;
19260;SDS011;9764;48.114;11.670;2022-10-22T08:11:00;0.50;;;0.50;;
19260;SDS011;9764;48.114;11.670;2022-10-22T08:13:28;0.70;;;0.70;;
19260;SDS011;9764;48.114;11.670;2022-10-22T08:15:57;0.57;;;0.57;;
19260;SDS011;9764;48.114;11.670;2022-10-22T08:18:26;0.75;;;0.60;;
19260;SDS011;9764;48.114;11.670;2022-10-22T08:20:55;0.50;;;0.50;;
19260;SDS011;9764;48.114;11.670;2022-10-22T08:23:24;0.60;;;0.60;;
19260;SDS011;9764;48.114;11.670;2022-10-22T08:25:54;0.60;;;0.60;;
19260;SDS011;9764;48.114;11.670;2022-10-22T08:28:24;0.50;;;0.50;;
19260;SDS011;9764;48.114;11.670;2022-10-22T08:30:54;0.57;;;0.55;;
19260;SDS011;9764;48.114;11.670;2022-10-22T08:33:22;0.50;;;0.50;;
19260;SDS011;9764;48.114;11.670;2022-10-22T08:35:51;0.50;;;0.50;;
19260;SDS011;9764;48.114;11.670;2022-10-22T08:38:19;0.77;;;0.60;;
19260;SDS011;9764;48.114;11.670;2022-10-22T08:40:48;0.63;;;0.63;;
19260;SDS011;9764;48.114;11.670;2022-10-22T08:43:36;0.57;;;0.57;;
19260;SDS011;9764;48.114;11.670;2022-10-22T08:46:17;0.75;;;0.57;;
19260;SDS011;9764;48.114;11.670;2022-10-22T08:48:56;0.50;;;0.50;;
19260;SDS011;9764;48.114;11.670;2022-10-22T08:51:32;0.50;;;0.50;;
19260;SDS011;9764;48.114;11.670;2022-10-22T08:54:14;0.50;;;0.50;;
19260;SDS011;9764;48.114;11.670;2022-10-22T08:56:51;0.40;;;0.40;;
19260;SDS011;9764;48.114;11.670;2022-10-22T08:59:27;0.50;;;0.50;;
19260;SDS011;9764;48.114;11.670;2022-10-22T09:02:03;0.40;;;0.40;;
19260;SDS011;9764;48.114;11.670;2022-10-22T09:04:41;1.33;;;0.65;;
19260;SDS011;9764;48.114;11.670;2022-10-22T09:07:16;0.45;;;0.45;;
19260;SDS011;9764;48.114;11.670;2022-10-22T09:09:46;0.57;;;0.50;;
19260;SDS011;9764;48.114;11.670;2022-10-22T09:12:18;0.40;;;0.40;;
19260;SDS011;9764;48.114;11.670;2022-10-22T09:14:52;0.40;;;0.40;;
19260;SDS011;9764;48.114;11.670;2022-10-22T09:17:24;0.45;;;0.45;;
19260;SDS011;9764;48.114;11.670;2022-10-22T09:20:00;0.50;;;0.50;;
19260;SDS011;9764;48.114;11.670;2022-10-22T09:22:42;0.68;;;0.50;;
19260;SDS011;9764;48.114;11.670;2022-10-22T09:25:18;0.70;;;0.70;;
19260;SDS011;9764;48.114;11.670;2022-10-22T09:27:48;0.40;;;0.40;;
19260;SDS011;9764;48.114;11.670;2022-10-22T09:30:19;0.45;;;0.45;;
19260;SDS011;9764;48.114;11.670;2022-10-22T09:32:49;0.40;;;0.40;;
19260;SDS011;9764;48.114;11.670;2022-10-22T09:35:21;0.50;;;0.50;;
19260;SDS011;9764;48.114;11.670;2022-10-22T09:37:51;0.55;;;0.55;;
19260;SDS011;9764;48.114;11.670;2022-10-22T09:40:22;0.60;;;0.50;;
19260;SDS011;9764;48.114;11.670;2022-10-22T09:42:50;0.40;;;0.40;;
19260;SDS011;9764;48.114;11.670;2022-10-22T09:45:20;0.50;;;0.50;;
19260;SDS011;9764;48.114;11.670;2022-10-22T09:48:02;0.43;;;0.43;;
19260;SDS011;9764;48.114;11.670;2022-10-22T09:50:38;0.32;;;0.32;;
19260;SDS011;9764;48.114;11.670;2022-10-22T09:53:12;0.50;;;0.50;;
19260;SDS011;9764;48.114;11.670;2022-10-22T09:55:48;0.50;;;0.50;;
19260;SDS011;9764;48.114;11.670;2022-10-22T09:58:18;0.63;;;0.50;;
19260;SDS011;9764;48.114;11.670;2022-10-22T10:00:50;0.43;;;0.43;;
19260;SDS011;9764;48.114;11.670;2022-10-22T10:03:21;0.40;;;0.40;;
19260;SDS011;9764;48.114;11.670;2022-10-22T10:05:52;0.40;;;0.40;;
19260;SDS011;9764;48.114;11.670;2022-10-22T10:08:28;0.50;;;0.43;;
19260;SDS011;9764;48.114;11.670;2022-10-22T10:10:57;0.47;;;0.47;;
19260;SDS011;9764;48.114;11.670;2022-10-22T10:13:32;0.50;;;0.50;;
19260;SDS011;9764;48.114;11.670;2022-10-22T10:16:14;0.40;;;0.40;;
19260;SDS011;9764;48.114;11.670;2022-10-22T10:21:56;0.50;;;0.50;;
19260;SDS011;9764;48.114;11.670;2022-10-22T10:24:45;0.47;;;0.47;;
19260;SDS011;9764;48.114;11.670;2022-10-22T10:27:26;0.40;;;0.40;;
19260;SDS011;9764;48.114;11.670;2022-10-22T10:30:02;0.40;;;0.40;;
19260;SDS011;9764;48.114;11.670;2022-10-22T10:32:44;0.30;;;0.30;;
19260;SDS011;9764;48.114;11.670;2022-10-22T10:35:22;0.40;;;0.40;;
19260;SDS011;9764;48.114;11.670;2022-10-22T10:38:02;0.50;;;0.50;;
19260;SDS011;9764;48.114;11.670;2022-10-22T10:40:42;0.40;;;0.40;;
19260;SDS011;9764;48.114;11.670;2022-10-22T10:43:16;0.93;;;0.50;;
19260;SDS011;9764;48.114;11.670;2022-10-22T10:45:54;0.40;;;0.40;;
19260;SDS011;9764;48.114;11.670;2022-10-22T10:48:35;0.50;;;0.50;;
19260;SDS011;9764;48.114;11.670;2022-10-22T10:51:13;0.40;;;0.40;;
19260;SDS011;9764;48.114;11.670;2022-10-22T10:56:49;0.40;;;0.40;;
19260;SDS011;9764;48.114;11.670;2022-10-22T10:59:23;0.60;;;0.60;;
19260;SDS011;9764;48.114;11.670;2022-10-22T11:02:19;0.50;;;0.50;;
19260;SDS011;9764;48.114;11.670;2022-10-22T11:05:25;0.40;;;0.40;;
19260;SDS011;9764;48.114;11.670;2022-10-22T11:07:59;0.50;;;0.50;;
19260;SDS011;9764;48.114;11.670;2022-10-22T11:10:31;0.50;;;0.50;;
19260;SDS011;9764;48.114;11.670;2022-10-22T11:13:05;0.50;;;0.50;;
19260;SDS011;9764;48.114;11.670;2022-10-22T11:15:39;0.55;;;0.47;;
19260;SDS011;9764;48.114;11.670;2022-10-22T11:18:13;0.50;;;0.40;;
19260;SDS011;9764;48.114;11.670;2022-10-22T11:21:01;0.40;;;0.40;;
19260;SDS011;9764;48.114;11.670;2022-10-22T11:23:36;0.50;;;0.50;;
19260;SDS011;9764;48.114;11.670;2022-10-22T11:26:09;0.50;;;0.50;;
19260;SDS011;9764;48.114;11.670;2022-10-22T11:28:42;0.40;;;0.40;;
19260;SDS011;9764;48.114;11.670;2022-10-22T11:31:16;0.50;;;0.50;;
19260;SDS011;9764;48.114;11.670;2022-10-22T11:33:47;0.40;;;0.40;;
19260;SDS011;9764;48.114;11.670;2022-10-22T11:36:37;0.50;;;0.50;;
19260;SDS011;9764;48.114;11.670;2022-10-22T11:39:05;0.40;;;0.40;;
19260;SDS011;9764;48.114;11.670;2022-10-22T11:41:34;0.40;;;0.40;;
19260;SDS011;9764;48.114;11.670;2022-10-22T11:44:09;1.00;;;0.60;;
19260;SDS011;9764;48.114;11.670;2022-10-22T11:46:53;0.40;;;0.40;;
19260;SDS011;9764;48.114;11.670;2022-10-22T11:49:25;0.50;;;0.50;;
19260;SDS011;9764;48.114;11.670;2022-10-22T11:52:20;0.70;;;0.55;;
19260;SDS011;9764;48.114;11.670;2022-10-22T11:54:52;0.50;;;0.50;;
19260;SDS011;9764;48.114;11.670;2022-10-22T11:57:27;0.40;;;0.40;;
19260;SDS011;9764;48.114;11.670;2022-10-22T12:00:05;0.50;;;0.50;;
19260;SDS011;9764;48.114;11.670;2022-10-22T12:02:39;0.40;;;0.40;;
19260;SDS011;9764;48.114;11.670;2022-10-22T12:05:16;0.40;;;0.40;;
19260;SDS011;9764;48.114;11.670;2022-10-22T12:08:03;0.43;;;0.43;;
19260;SDS011;9764;48.114;11.670;2022-10-22T12:13:31;0.50;;;0.50;;
19260;SDS011;9764;48.114;11.670;2022-10-22T12:16:17;0.40;;;0.40;;
19260;SDS011;9764;48.114;11.670;2022-10-22T12:19:11;0.40;;;0.40;;
19260;SDS011;9764;48.114;11.670;2022-10-22T12:21:42;0.80;;;0.50;;
19260;SDS011;9764;48.114;11.670;2022-10-22T12:24:16;0.52;;;0.52;;
19260;SDS011;9764;48.114;11.670;2022-10-22T12:26:46;0.47;;;0.47;;
19260;SDS011;9764;48.114;11.670;2022-10-22T12:29:19;0.40;;;0.40;;
19260;SDS011;9764;48.114;11.670;2022-10-22T12:31:51;0.60;;;0.60;;
19260;SDS011;9764;48.114;11.670;2022-10-22T12:34:21;0.40;;;0.40;;
19260;SDS011;9764;48.114;11.670;2022-10-22T12:36:52;0.50;;;0.50;;
19260;SDS011;9764;48.114;11.670;2022-10-22T12:39:24;0.52;;;0.52;;
19260;SDS011;9764;48.114;11.670;2022-10-22T12:41:53;0.43;;;0.43;;
19260;SDS011;9764;48.114;11.670;2022-10-22T12:44:22;0.40;;;0.40;;
19260;SDS011;9764;48.114;11.670;2022-10-22T12:46:50;1.67;;;0.50;;
19260;SDS011;9764;48.114;11.670;2022-10-22T12:49:23;0.73;;;0.60;;
19260;SDS011;9764;48.114;11.670;2022-10-22T12:51:59;1.27;;;0.40;;
19260;SDS011;9764;48.114;11.670;2022-10-22T12:54:32;0.40;;;0.40;;
19260;SDS011;9764;48.114;11.670;2022-10-22T12:57:01;0.50;;;0.50;;
19260;SDS011;9764;48.114;11.670;2022-10-22T12:59:31;0.50;;;0.50;;
19260;SDS011;9764;48.114;11.670;2022-10-22T13:02:01;0.50;;;0.50;;
19260;SDS011;9764;48.114;11.670;2022-10-22T13:05:02;0.55;;;0.50;;
19260;SDS011;9764;48.114;11.670;2022-10-22T13:07:39;1.45;;;0.50;;
19260;SDS011;9764;48.114;11.670;2022-10-22T13:10:13;0.75;;;0.40;;
19260;SDS011;9764;48.114;11.670;2022-10-22T13:12:47;0.50;;;0.50;;
19260;SDS011;9764;48.114;11.670;2022-10-22T13:15:18;0.40;;;0.40;;
19260;SDS011;9764;48.114;11.670;2022-10-22T13:18:02;0.40;;;0.40;;
19260;SDS011;9764;48.114;11.670;2022-10-22T13:20:33;0.60;;;0.60;;
19260;SDS011;9764;48.114;11.670;2022-10-22T13:23:04;0.40;;;0.40;;
19260;SDS011;9764;48.114;11.670;2022-10-22T13:25:34;0.45;;;0.43;;
19260;SDS011;9764;48.114;11.670;2022-10-22T13:28:12;0.50;;;0.50;;
19260;SDS011;9764;48.114;11.670;2022-10-22T13:30:50;0.40;;;0.40;;
19260;SDS011;9764;48.114;11.670;2022-10-22T13:33:21;0.68;;;0.50;;
19260;SDS011;9764;48.114;11.670;2022-10-22T13:35:52;0.52;;;0.52;;
19260;SDS011;9764;48.114;11.670;2022-10-22T13:38:22;0.50;;;0.40;;
19260;SDS011;9764;48.114;11.670;2022-10-22T13:40:53;0.50;;;0.50;;
19260;SDS011;9764;48.114;11.670;2022-10-22T13:43:22;0.93;;;0.60;;
19260;SDS011;9764;48.114;11.670;2022-10-22T13:45:51;0.40;;;0.40;;
19260;SDS011;9764;48.114;11.670;2022-10-22T13:48:21;0.50;;;0.50;;
19260;SDS011;9764;48.114;11.670;2022-10-22T13:50:51;0.40;;;0.40;;
19260;SDS011;9764;48.114;11.670;2022-10-22T13:53:21;0.50;;;0.50;;
19260;SDS011;9764;48.114;11.670;2022-10-22T13:55:50;0.45;;;0.45;;
19260;SDS011;9764;48.114;11.670;2022-10-22T13:58:21;0.80;;;0.40;;
19260;SDS011;9764;48.114;11.670;2022-10-22T14:00:51;0.38;;;0.38;;
19260;SDS011;9764;48.114;11.670;2022-10-22T14:03:24;0.50;;;0.50;;
19260;SDS011;9764;48.114;11.670;2022-10-22T14:05:54;0.93;;;0.45;;
19260;SDS011;9764;48.114;11.670;2022-10-22T14:08:23;0.40;;;0.40;;
19260;SDS011;9764;48.114;11.670;2022-10-22T14:10:54;0.50;;;0.50;;
19260;SDS011;9764;48.114;11.670;2022-10-22T14:13:22;0.40;;;0.40;;
19260;SDS011;9764;48.114;11.670;2022-10-22T14:15:52;0.40;;;0.40;;
19260;SDS011;9764;48.114;11.670;2022-10-22T14:18:21;0.50;;;0.50;;
19260;SDS011;9764;48.114;11.670;2022-10-22T14:20:53;0.40;;;0.40;;
19260;SDS011;9764;48.114;11.670;2022-10-22T14:23:23;0.50;;;0.40;;
19260;SDS011;9764;48.114;11.670;2022-10-22T14:25:55;0.55;;;0.50;;
19260;SDS011;9764;48.114;11.670;2022-10-22T14:28:26;0.47;;;0.47;;
19260;SDS011;9764;48.114;11.670;2022-10-22T14:30:57;0.95;;;0.55;;
19260;SDS011;9764;48.114;11.670;2022-10-22T14:33:26;0.40;;;0.40;;
19260;SDS011;9764;48.114;11.670;2022-10-22T14:35:57;0.60;;;0.43;;
19260;SDS011;9764;48.114;11.670;2022-10-22T14:38:26;0.63;;;0.50;;
19260;SDS011;9764;48.114;11.670;2022-10-22T14:40:56;0.40;;;0.40;;
19260;SDS011;9764;48.114;11.670;2022-10-22T14:43:26;0.45;;;0.45;;
19260;SDS011;9764;48.114;11.670;2022-10-22T14:45:56;0.50;;;0.40;;
19260;SDS011;9764;48.114;11.670;2022-10-22T14:48:25;0.52;;;0.50;;
19260;SDS011;9764;48.114;11.670;2022-10-22T14:50:53;0.50;;;0.50;;
19260;SDS011;9764;48.114;11.670;2022-10-22T14:53:21;0.50;;;0.50;;
19260;SDS011;9764;48.114;11.670;2022-10-22T14:55:50;0.50;;;0.50;;
19260;SDS011;9764;48.114;11.670;2022-10-22T14:58:22;0.50;;;0.50;;
19260;SDS011;9764;48.114;11.670;2022-10-22T15:00:50;0.40;;;0.40;;
19260;SDS011;9764;48.114;11.670;2022-10-22T15:03:19;0.40;;;0.40;;
19260;SDS011;9764;48.114;11.670;2022-10-22T15:05:49;0.50;;;0.50;;
19260;SDS011;9764;48.114;11.670;2022-10-22T15:08:19;0.45;;;0.45;;
19260;SDS011;9764;48.114;11.670;2022-10-22T15:10:55;0.40;;;0.40;;
19260;SDS011;9764;48.114;11.670;2022-10-22T15:13:26;0.40;;;0.40;;
19260;SDS011;9764;48.114;11.670;2022-10-22T15:15:56;0.40;;;0.40;;
19260;SDS011;9764;48.114;11.670;2022-10-22T15:18:25;0.40;;;0.40;;
19260;SDS011;9764;48.114;11.670;2022-10-22T15:20:54;0.45;;;0.45;;
19260;SDS011;9764;48.114;11.670;2022-10-22T15:23:25;0.38;;;0.38;;
19260;SDS011;9764;48.114;11.670;2022-10-22T15:25:53;0.40;;;0.40;;